In Rescue
 
Open Full Screen Window  High Contrast Mode
Wind Gusting 17 knots
08
November 14, 2019 1:57 PM EST
Weather Information
Wind Direction
  190 °
Wind Speed
  08 kt (9 mph)
Wind Gust
  17 kt (20 mph)
Variable Wind
160°
220°
Altimeter
30.24 in
Visibility
10 SM
Temperature
00° C
32° F
Dewpoint
-09° C
16° F
Humidity
51%
Sky Condition
Scattered @ 4,500 ft
Scattered @ 3,900 ft
VFR

METAR KFSO 141857Z AUTO 19008G17KT 160V220 10SM SCT039 SCT045 00/M09 A3024 RMK AO2 T10021089

FAA Disclaimer: The data displayed is for advisory purposes only and is not to be used for flight planning or operations.